Accueil
METAR-TAF:

METAR-TAF

Aéroports :

Île Christmas, Kiribati

Aéroport international Cassidy

latitude: 01-59N, longitude: 157-29W, altitude: 3 m

Observation

Le bulletin a été fait il y a 58 minutes, à 06:00 UTC
Vent 8 kt de est
Température 28°C
Humidité 74%
Pression 1009 hPa
Visibilité 10 km ou plus
Quelques nuages à une hauteur de 2000 ft

METAR: PLCH 270600Z 09008KT 9999 FEW020 28/23 Q1009

Heure: 20:58 (06:58 UTC)

Prévision

Le bulletin a été fait il y a 1 heure et 37 minutes, à 05:21 UTC
Prévision valable du 27 à 06 UTC au 28 à 06 UTC
Vent 10 kt de est
Visibilité 10 km ou plus
Nuages épars à une hauteur de 1800 ft
Nuages épars à une hauteur de 4000 ft

TAF: PLCH 270521Z 2706/2806 09010KT 9999 SCT018 SCT040

Observations et prévisions météorologiques de plus de 4000 aéroports (messages METAR et TAF).

Les stations disponibles sont représentées par des disques jaunes et rouges sur la carte.

Passer la souris dessus pour voir le nom de la station.

Cliquer dessus pour voir les observations et prévisions météorologiques.

Pour changer de carte: cliquez sur les boutons verts avec une croix noire pour zoomer, sur le bouton vert avec un tiret pour effectuer un zoom arrière, ou sur les flèches vertes pour les cartes adjacentes.


METAR-TAF: